Terminal Aerodrome Forecast
Issued by NWS Twin Cities, MN

Home | Current Version | Previous Version | Graphics & Text | Print | Product List | Glossary On
Versions: 1 2 3 4 5 6 7 8 9 10 11 12 13 14
000
FTUS43 KMPX 032106 AAA
TAFEAU
TAF AMD
KEAU 032106Z 0321/0418 29012KT P6SM BKN025 OVC060
      TEMPO 0321/0324 SCT025
     FM040000 29012G22KT P6SM SCT025 BKN090
     FM040500 29011KT P6SM SKC=

USA.gov is the U.S. government's official web portal to all federal, state and local government web resources and services.